Time;durP1;ratioP1;P1;durP2;ratioP2;P2;SDS_P1;SDS_P2;PMS_P1;PMS_P2;Temp;Humidity;BMP_temperature;BMP_pressure;BME280_temperature;BME280_humidity;BME280_pressure;Samples;Min_cycle;Max_cycle;Signal;HPM_P1;HPM_P2
2023/06/26 00:01:14;;;;;;;29.97;4.37;;;;;;;24.79;59.86;99506.84;7313769;19;129211;-42
2023/06/26 00:03:40;;;;;;;37.00;4.53;;;;;;;24.88;59.95;99516.41;7314839;19;129565;-41
2023/06/26 00:06:05;;;;;;;12.47;3.53;;;;;;;24.88;59.99;99515.59;7314832;19;129814;-36
2023/06/26 00:08:31;;;;;;;48.57;5.73;;;;;;;24.87;59.46;99519.22;7314256;19;129210;-39
2023/06/26 00:10:56;;;;;;;35.57;4.93;;;;;;;24.86;59.58;99510.50;7313004;19;129401;-42
2023/06/26 00:13:23;;;;;;;5.03;2.80;;;;;;;24.85;59.79;99502.75;7313595;19;129992;-35
2023/06/26 00:15:48;;;;;;;35.95;4.80;;;;;;;24.87;59.86;99503.44;7313071;19;130267;-38
2023/06/26 00:18:13;;;;;;;52.87;5.67;;;;;;;24.88;59.12;99505.91;7313674;19;129147;-40
2023/06/26 00:20:39;;;;;;;31.13;4.70;;;;;;;24.85;59.64;99502.75;7312692;19;128888;-39
2023/06/26 00:23:07;;;;;;;27.10;4.00;;;;;;;24.87;59.42;99503.44;7313141;19;129154;-41
2023/06/26 00:25:35;;;;;;;16.75;3.83;;;;;;;24.86;59.82;99496.53;7313263;19;131053;-37
2023/06/26 00:28:01;;;;;;;60.97;6.28;;;;;;;24.87;59.73;99491.13;7313110;19;129872;-38
2023/06/26 00:30:26;;;;;;;14.33;3.63;;;;;;;24.86;59.50;99497.34;7312489;19;131449;-38
2023/06/26 00:32:51;;;;;;;27.37;4.03;;;;;;;24.87;59.29;99498.16;7311976;19;129784;-39
2023/06/26 00:35:17;;;;;;;26.02;4.03;;;;;;;24.85;59.61;99494.88;7313362;19;129374;-41
2023/06/26 00:37:42;;;;;;;22.63;3.83;;;;;;;24.87;59.15;99504.25;7313004;19;129221;-39
2023/06/26 00:40:08;;;;;;;37.17;4.97;;;;;;;24.87;59.91;99500.81;7311615;19;128924;-36
2023/06/26 00:42:34;;;;;;;22.83;4.00;;;;;;;24.86;59.72;99497.34;7313644;19;129442;-40
2023/06/26 00:44:59;;;;;;;30.40;4.50;;;;;;;24.86;59.08;99493.91;7312372;19;129180;-41
2023/06/26 00:47:25;;;;;;;34.37;4.43;;;;;;;24.86;59.48;99499.97;7312271;19;129345;-41
2023/06/26 00:49:51;;;;;;;29.27;4.63;;;;;;;24.85;59.67;99487.81;7312105;19;128991;-35
2023/06/26 00:52:17;;;;;;;46.03;5.68;;;;;;;24.82;60.05;99485.53;7310844;19;129503;-36
2023/06/26 00:54:43;;;;;;;38.50;4.73;;;;;;;24.77;59.61;99468.56;7310185;19;130419;-39
2023/06/26 00:57:08;;;;;;;42.40;4.90;;;;;;;24.87;59.83;99483.22;7313953;19;129282;-38
2023/06/26 00:59:35;;;;;;;34.30;4.60;;;;;;;24.85;59.12;99481.72;7311855;19;129201;-37
2023/06/26 01:02:00;;;;;;;24.85;3.95;;;;;;;24.77;59.80;99468.56;7311640;19;129289;-43
2023/06/26 01:04:27;;;;;;;59.60;6.03;;;;;;;24.86;59.26;99488.66;7312692;19;129353;-35
2023/06/26 01:06:54;;;;;;;31.15;4.43;;;;;;;24.84;59.59;99488.78;7313511;19;129064;-38
2023/06/26 01:09:20;;;;;;;42.92;4.82;;;;;;;24.83;59.50;99486.31;7312501;19;129195;-41
2023/06/26 01:11:46;;;;;;;32.33;4.73;;;;;;;24.84;59.50;99487.97;7309564;19;129686;-38
2023/06/26 01:14:12;;;;;;;33.83;4.27;;;;;;;24.84;59.68;99480.09;7310419;19;129805;-43
2023/06/26 01:16:40;;;;;;;31.63;4.67;;;;;;;24.83;59.42;99481.06;7313349;19;129073;-39
2023/06/26 01:19:24;;;;;;;26.10;4.18;;;;;;;24.76;59.63;99459.84;7312423;19;129552;-38
2023/06/26 01:21:51;;;;;;;39.05;4.72;;;;;;;24.83;59.47;99473.16;7309674;19;129762;-39
2023/06/26 01:24:20;;;;;;;28.38;4.55;;;;;;;24.84;59.70;99472.19;7311557;19;130406;-40
2023/06/26 01:26:50;;;;;;;37.22;5.00;;;;;;;24.84;59.27;99472.19;7311799;19;128909;-37
2023/06/26 01:29:18;;;;;;;31.00;4.18;;;;;;;24.82;59.88;99464.47;7312129;19;128898;-40
2023/06/26 01:31:47;;;;;;;17.40;3.95;;;;;;;24.82;59.88;99469.75;7308704;19;129476;-42
2023/06/26 01:34:14;;;;;;;26.05;4.15;;;;;;;24.74;59.74;99455.75;7309333;19;129404;-43
2023/06/26 01:36:39;;;;;;;30.55;4.05;;;;;;;24.74;59.43;99455.75;7312431;19;129011;-41
2023/06/26 01:39:04;;;;;;;43.83;5.40;;;;;;;24.84;59.22;99469.56;7312119;19;129476;-40
2023/06/26 01:41:30;;;;;;;18.10;3.50;;;;;;;24.74;59.07;99445.25;7309692;19;129640;-38
2023/06/26 01:44:13;;;;;;;43.23;5.27;;;;;;;24.84;59.18;99451.16;7310757;19;130133;-37
2023/06/26 01:46:42;;;;;;;14.40;3.72;;;;;;;24.82;59.83;99453.97;7311294;19;129433;-32
2023/06/26 01:49:10;;;;;;;19.15;3.72;;;;;;;24.83;59.15;99454.75;7311063;19;129190;-39
2023/06/26 01:51:42;;;;;;;32.28;4.68;;;;;;;24.84;59.99;99440.66;7309601;19;129791;-46
2023/06/26 01:54:13;;;;;;;23.13;4.10;;;;;;;24.83;59.62;99450.34;7309640;19;129757;-36
2023/06/26 01:56:40;;;;;;;13.02;3.15;;;;;;;24.82;59.91;99442.63;7311367;19;129137;-38
2023/06/26 01:59:07;;;;;;;31.58;4.82;;;;;;;24.82;59.78;99438.19;7310770;19;129451;-36
2023/06/26 02:01:33;;;;;;;42.80;4.93;;;;;;;24.82;59.61;99434.72;7309312;19;129196;-41
2023/06/26 02:03:59;;;;;;;25.93;3.93;;;;;;;24.81;59.44;99441.78;7316712;19;130363;-39
2023/06/26 02:06:24;;;;;;;19.97;3.87;;;;;;;24.84;59.51;99445.91;7319291;19;129151;-40
2023/06/26 02:08:50;;;;;;;20.40;3.70;;;;;;;24.83;59.83;99445.06;7317403;19;129476;-36
2023/06/26 02:11:15;;;;;;;38.83;4.50;;;;;;;24.83;59.10;99444.25;7315776;19;129189;-39
2023/06/26 02:13:41;;;;;;;29.20;4.13;;;;;;;24.80;59.23;99437.53;7317312;19;129147;-38
2023/06/26 02:16:06;;;;;;;13.77;3.87;;;;;;;24.82;59.13;99439.97;7318738;19;129292;-42
2023/06/26 02:18:31;;;;;;;25.97;4.00;;;;;;;24.83;59.50;99445.06;7317469;19;128798;-35
2023/06/26 02:20:57;;;;;;;38.30;4.27;;;;;;;24.83;59.79;99438.97;7316908;19;129140;-40
2023/06/26 02:23:22;;;;;;;24.93;3.93;;;;;;;24.83;59.80;99444.25;7318289;19;129385;-40
2023/06/26 02:25:47;;;;;;;6.10;3.07;;;;;;;24.82;59.40;99432.94;7318242;19;129033;-42
2023/06/26 02:28:13;;;;;;;50.22;5.80;;;;;;;24.82;59.17;99437.34;7315969;19;129335;-41
2023/06/26 02:30:38;;;;;;;37.37;4.50;;;;;;;24.82;59.46;99432.09;7316771;19;129748;-38
2023/06/26 02:33:03;;;;;;;24.97;3.80;;;;;;;24.81;59.78;99436.53;7316325;19;129168;-39
2023/06/26 02:35:29;;;;;;;38.53;4.97;;;;;;;24.82;59.78;99426.84;7318609;19;129157;-39
2023/06/26 02:37:54;;;;;;;62.30;6.20;;;;;;;24.81;59.22;99436.53;7316543;19;128928;-37
2023/06/26 02:40:19;;;;;;;25.03;4.37;;;;;;;24.80;59.42;99423.53;7316656;19;130499;-35
2023/06/26 02:42:45;;;;;;;36.33;4.53;;;;;;;24.81;59.78;99419.94;7316326;19;129321;-43
2023/06/26 02:45:10;;;;;;;43.83;5.40;;;;;;;24.82;59.75;99421.56;7316739;19;129654;-41
2023/06/26 02:47:39;;;;;;;50.33;5.87;;;;;;;24.82;59.54;99422.41;7316718;19;129478;-41
2023/06/26 02:50:05;;;;;;;26.48;4.18;;;;;;;24.80;59.79;99428.81;7314927;19;129896;-41
2023/06/26 02:52:31;;;;;;;25.70;4.25;;;;;;;24.81;59.03;99425.19;7315689;19;129181;-39
2023/06/26 02:54:56;;;;;;;22.43;3.83;;;;;;;24.83;59.36;99423.22;7314245;19;129154;-36
2023/06/26 02:57:21;;;;;;;60.10;6.20;;;;;;;24.82;59.18;99416.31;7313532;19;128930;-44
2023/06/26 02:59:47;;;;;;;29.37;4.13;;;;;;;24.82;59.08;99426.84;7315632;19;129710;-37
2023/06/26 03:02:12;;;;;;;30.70;4.23;;;;;;;24.78;59.78;99418.44;7314775;19;129412;-39
2023/06/26 03:04:37;;;;;;;18.47;3.70;;;;;;;24.81;59.63;99425.19;7314604;19;128901;-41
2023/06/26 03:07:03;;;;;;;45.77;5.13;;;;;;;24.81;59.19;99422.56;7314593;19;129159;-42
2023/06/26 03:09:29;;;;;;;22.52;4.32;;;;;;;24.80;59.17;99424.38;7316402;19;129513;-38
2023/06/26 03:11:55;;;;;;;22.13;3.87;;;;;;;24.81;59.61;99419.94;7312132;19;129977;-39
2023/06/26 03:14:21;;;;;;;30.83;4.40;;;;;;;24.81;59.36;99427.84;7313675;19;129635;-33
2023/06/26 03:16:46;;;;;;;42.63;5.07;;;;;;;24.81;59.53;99420.75;7314334;19;130685;-40
2023/06/26 03:19:11;;;;;;;35.87;4.67;;;;;;;24.81;59.33;99427.84;7314009;19;129212;-43
2023/06/26 03:21:37;;;;;;;81.23;7.60;;;;;;;24.81;59.67;99430.47;7311168;19;129312;-43
2023/06/26 03:24:02;;;;;;;20.10;3.40;;;;;;;24.81;59.05;99419.94;7315608;19;128900;-42
2023/06/26 03:26:28;;;;;;;37.00;4.85;;;;;;;24.81;59.15;99425.19;7315502;19;129299;-37
2023/06/26 03:28:54;;;;;;;26.13;4.07;;;;;;;24.82;59.22;99426.84;7312760;19;129329;-37
2023/06/26 03:31:20;;;;;;;44.30;5.07;;;;;;;24.81;59.13;99419.94;7313142;19;129125;-34
2023/06/26 03:33:46;;;;;;;40.72;4.97;;;;;;;24.80;59.13;99418.28;7312348;19;129029;-37
2023/06/26 03:36:11;;;;;;;37.20;4.50;;;;;;;24.81;59.67;99422.56;7315460;19;129323;-38
2023/06/26 03:38:36;;;;;;;19.83;3.73;;;;;;;24.80;59.36;99424.38;7313356;19;129209;-36
2023/06/26 03:41:02;;;;;;;23.73;4.03;;;;;;;24.80;59.64;99415.66;7313178;19;129168;-39
2023/06/26 03:43:27;;;;;;;52.37;5.47;;;;;;;24.82;59.68;99411.06;7313878;19;130382;-37
2023/06/26 03:45:53;;;;;;;16.83;3.73;;;;;;;24.71;58.99;99398.25;7314664;19;128952;-38
2023/06/26 03:48:18;;;;;;;45.73;5.27;;;;;;;24.80;59.22;99408.59;7313086;19;129395;-37
2023/06/26 03:50:44;;;;;;;32.07;4.83;;;;;;;24.81;59.00;99409.44;7311751;19;129391;-41
2023/06/26 03:53:09;;;;;;;36.17;4.50;;;;;;;24.80;59.20;99405.13;7311726;19;129335;-38
2023/06/26 03:55:34;;;;;;;24.93;4.23;;;;;;;24.81;59.23;99404.16;7314560;19;129713;-39
2023/06/26 03:58:00;;;;;;;29.80;4.70;;;;;;;24.82;59.14;99406.63;7312733;19;129359;-39
2023/06/26 04:00:25;;;;;;;71.77;7.10;;;;;;;24.81;59.31;99404.97;7310583;19;129681;-40
2023/06/26 04:02:51;;;;;;;41.83;5.00;;;;;;;24.82;59.67;99396.13;7310972;19;129496;-37
2023/06/26 04:05:17;;;;;;;30.00;4.30;;;;;;;24.83;59.66;99402.16;7313556;19;128951;-40
2023/06/26 04:07:42;;;;;;;31.10;4.63;;;;;;;24.82;59.12;99400.53;7314297;19;129380;-35
2023/06/26 04:10:08;;;;;;;39.00;5.13;;;;;;;24.83;59.52;99396.91;7311403;19;131090;-42
2023/06/26 04:12:33;;;;;;;32.03;4.67;;;;;;;24.80;59.55;99390.19;7313479;19;128850;-35
2023/06/26 04:14:59;;;;;;;31.63;4.70;;;;;;;24.81;59.08;99394.44;7310174;19;132544;-34
2023/06/26 04:17:24;;;;;;;27.90;4.10;;;;;;;24.81;59.33;99401.53;7314337;19;129985;-39
2023/06/26 04:19:49;;;;;;;48.80;5.37;;;;;;;24.80;59.40;99387.56;7308754;19;130595;-43
2023/06/26 04:22:15;;;;;;;30.07;4.77;;;;;;;24.81;59.08;99393.66;7313627;19;128913;-37
2023/06/26 04:24:40;;;;;;;33.90;5.03;;;;;;;24.81;58.95;99393.66;7309805;19;128963;-41
2023/06/26 04:27:06;;;;;;;30.17;4.50;;;;;;;24.80;59.24;99386.72;7310969;19;129228;-43
2023/06/26 04:29:31;;;;;;;46.13;5.43;;;;;;;24.80;59.56;99392.00;7311898;19;130526;-43
2023/06/26 04:31:59;;;;;;;46.33;5.10;;;;;;;24.78;59.38;99383.44;7312070;19;128936;-37
2023/06/26 04:34:26;;;;;;;34.08;4.68;;;;;;;24.77;59.43;99387.06;7310689;19;129201;-36
2023/06/26 04:36:51;;;;;;;19.52;3.72;;;;;;;24.79;58.92;99390.34;7311199;19;129455;-40
2023/06/26 04:39:17;;;;;;;57.30;6.00;;;;;;;24.79;59.13;99390.34;7308480;19;129484;-46
2023/06/26 04:41:42;;;;;;;39.80;5.23;;;;;;;24.79;59.73;99390.34;7309941;19;129319;-44
2023/06/26 04:44:08;;;;;;;49.00;5.57;;;;;;;24.78;58.96;99389.53;7312210;19;129569;-43
2023/06/26 04:46:33;;;;;;;21.27;3.77;;;;;;;24.80;59.53;99386.72;7313910;19;129501;-38
2023/06/26 04:48:58;;;;;;;46.37;5.37;;;;;;;24.77;59.07;99387.06;7312042;19;129147;-41
2023/06/26 04:51:26;;;;;;;37.43;4.87;;;;;;;24.79;59.54;99385.91;7308679;19;128967;-40
2023/06/26 04:53:52;;;;;;;26.75;3.92;;;;;;;24.77;59.77;99379.19;7311165;19;128975;-36
2023/06/26 04:56:17;;;;;;;36.10;4.67;;;;;;;24.71;59.22;99371.97;7312992;19;129006;-37
2023/06/26 04:58:43;;;;;;;53.90;5.63;;;;;;;24.80;59.02;99384.09;7308925;19;129468;-40
2023/06/26 05:01:08;;;;;;;41.03;4.90;;;;;;;24.81;58.95;99386.56;7306344;19;130042;-42
2023/06/26 05:03:34;;;;;;;46.03;4.90;;;;;;;24.80;59.71;99378.84;7304752;19;130406;-40
2023/06/26 05:05:59;;;;;;;57.00;5.63;;;;;;;24.80;59.62;99381.47;7303983;19;130506;-42
2023/06/26 05:08:26;;;;;;;61.13;5.90;;;;;;;24.77;59.59;99376.53;7308301;19;129801;-36
2023/06/26 05:10:53;;;;;;;61.75;5.88;;;;;;;24.79;59.04;99374.56;7304407;19;129059;-40
2023/06/26 05:13:19;;;;;;;37.20;4.32;;;;;;;24.77;59.59;99376.53;7307938;19;128951;-42
2023/06/26 05:15:45;;;;;;;36.70;4.78;;;;;;;24.78;59.84;99365.03;7308897;19;129957;-39
2023/06/26 05:18:11;;;;;;;39.13;4.95;;;;;;;24.80;59.37;99370.94;7311907;19;129271;-45
2023/06/26 05:20:37;;;;;;;27.23;4.35;;;;;;;24.80;59.67;99368.31;7310198;19;129057;-38
2023/06/26 05:23:04;;;;;;;21.33;3.80;;;;;;;24.81;59.77;99372.63;7310444;19;129643;-38
2023/06/26 05:25:30;;;;;;;42.13;4.82;;;;;;;24.79;59.51;99364.06;7312169;19;129110;-36
2023/06/26 05:27:57;;;;;;;46.60;5.45;;;;;;;24.79;59.30;99364.88;7311851;19;129328;-38
2023/06/26 05:30:25;;;;;;;33.22;4.18;;;;;;;24.73;59.71;99351.56;7310521;19;128931;-40
2023/06/26 05:32:51;;;;;;;40.58;4.90;;;;;;;24.80;59.39;99365.69;7311661;19;129380;-38
2023/06/26 05:35:18;;;;;;;31.67;4.70;;;;;;;24.80;59.18;99357.81;7307858;19;129948;-38
2023/06/26 05:37:44;;;;;;;56.92;5.97;;;;;;;24.81;59.22;99359.47;7312948;19;129237;-37
2023/06/26 05:40:10;;;;;;;50.40;5.93;;;;;;;24.72;59.17;99336.78;7316196;19;129470;-38
2023/06/26 05:42:35;;;;;;;26.90;4.30;;;;;;;24.80;59.63;99344.66;7318486;19;129378;-38
2023/06/26 05:45:01;;;;;;;43.23;4.90;;;;;;;24.82;58.91;99340.06;7317366;19;129408;-36
2023/06/26 05:47:26;;;;;;;23.60;3.97;;;;;;;24.82;59.63;99345.31;7318282;19;130952;-43
2023/06/26 05:49:51;;;;;;;28.70;4.60;;;;;;;24.82;59.29;99342.69;7315999;19;129206;-38
2023/06/26 05:52:17;;;;;;;23.30;4.15;;;;;;;24.82;58.93;99337.44;7315372;19;129479;-44
2023/06/26 05:54:43;;;;;;;46.50;6.23;;;;;;;24.86;59.58;99344.81;7316663;19;131031;-40
2023/06/26 05:57:09;;;;;;;30.93;5.23;;;;;;;24.87;59.27;99341.22;7315691;19;129678;-37
2023/06/26 05:59:36;;;;;;;20.73;4.40;;;;;;;24.77;59.49;99323.97;7317435;19;129333;-36
2023/06/26 06:02:02;;;;;;;30.35;4.95;;;;;;;24.89;58.96;99341.84;7316758;19;129533;-41
2023/06/26 06:04:27;;;;;;;48.10;6.10;;;;;;;24.95;59.01;99337.72;7317255;19;129248;-39
2023/06/26 06:06:53;;;;;;;34.15;5.18;;;;;;;24.93;58.99;99340.53;7318488;19;129590;-40
2023/06/26 06:09:18;;;;;;;57.45;7.15;;;;;;;24.91;59.57;99339.88;7315153;19;129156;-43
2023/06/26 06:11:44;;;;;;;38.77;5.10;;;;;;;24.88;58.97;99336.75;7314919;19;129865;-38
2023/06/26 06:14:09;;;;;;;39.00;5.97;;;;;;;24.87;59.35;99340.38;7316145;19;128900;-44
2023/06/26 06:16:34;;;;;;;42.53;5.80;;;;;;;24.86;59.84;99331.66;7317240;19;129175;-38
2023/06/26 06:18:59;;;;;;;29.70;4.87;;;;;;;24.86;59.23;99333.50;7318218;19;129147;-42
2023/06/26 06:21:25;;;;;;;40.10;5.47;;;;;;;24.86;59.51;99329.03;7316105;19;128738;-44
2023/06/26 06:23:50;;;;;;;38.85;5.00;;;;;;;24.86;59.16;99328.22;7318278;19;129431;-39
2023/06/26 06:26:16;;;;;;;26.90;4.30;;;;;;;24.86;59.31;99323.78;7317904;19;129894;-40
2023/06/26 06:28:41;;;;;;;32.87;5.33;;;;;;;24.86;59.15;99322.97;7317554;19;129375;-39
2023/06/26 06:31:06;;;;;;;40.37;4.87;;;;;;;24.86;59.84;99325.59;7315779;19;131315;-41
2023/06/26 06:33:32;;;;;;;53.20;6.03;;;;;;;24.86;59.83;99320.34;7316463;19;129655;-41
2023/06/26 06:35:57;;;;;;;30.07;5.07;;;;;;;24.88;59.13;99326.22;7317634;19;130363;-39
2023/06/26 06:38:22;;;;;;;32.60;4.63;;;;;;;24.87;59.79;99321.97;7316342;19;128774;-36
2023/06/26 06:40:48;;;;;;;25.10;4.63;;;;;;;24.86;59.24;99329.03;7315639;19;129082;-43
2023/06/26 06:43:13;;;;;;;31.50;4.80;;;;;;;24.77;59.24;99302.94;7318709;19;129184;-37
2023/06/26 06:45:39;;;;;;;24.77;4.53;;;;;;;24.77;59.24;99305.56;7317358;19;129250;-40
2023/06/26 06:48:05;;;;;;;22.57;4.53;;;;;;;24.86;59.88;99318.50;7316741;19;129266;-39
2023/06/26 06:50:30;;;;;;;48.58;5.55;;;;;;;24.85;59.57;99316.88;7313637;19;129145;-40
2023/06/26 06:52:56;;;;;;;40.03;5.67;;;;;;;24.78;59.19;99315.06;7314318;19;129828;-37
2023/06/26 06:55:21;;;;;;;32.08;5.10;;;;;;;24.60;60.30;99317.88;7313087;19;130599;-39
2023/06/26 06:57:47;;;;;;;36.33;4.80;;;;;;;24.60;60.44;99312.59;7314960;19;129208;-47
2023/06/26 07:00:16;;;;;;;61.10;5.83;;;;;;;24.72;60.58;99316.56;7316247;19;129368;-39
2023/06/26 07:02:45;;;;;;;39.13;5.40;;;;;;;24.78;60.28;99313.28;7315410;19;130617;-33
2023/06/26 07:05:12;;;;;;;66.18;6.75;;;;;;;24.81;60.17;99310.31;7311136;19;129767;-49
2023/06/26 07:07:38;;;;;;;98.75;9.38;;;;;;;24.85;59.75;99310.78;7308006;19;129380;-44
2023/06/26 07:10:06;;;;;;;62.23;6.90;;;;;;;24.85;60.24;99310.78;7304933;19;130777;-42
2023/06/26 07:12:32;;;;;;;44.70;5.55;;;;;;;24.83;59.52;99303.06;7311041;19;130636;-39
2023/06/26 07:14:57;;;;;;;41.60;5.53;;;;;;;24.87;59.24;99303.56;7308968;19;130127;-41
2023/06/26 07:17:23;;;;;;;51.47;5.63;;;;;;;24.89;59.64;99306.84;7308730;19;128918;-41
2023/06/26 07:19:49;;;;;;;48.30;6.53;;;;;;;24.88;59.80;99299.94;7309709;19;128962;-37
2023/06/26 07:22:15;;;;;;;43.15;5.28;;;;;;;24.87;59.91;99298.31;7310176;19;129960;-48
2023/06/26 07:24:40;;;;;;;42.60;5.50;;;;;;;24.86;59.95;99296.69;7309502;19;129662;-33
2023/06/26 07:27:06;;;;;;;49.73;6.13;;;;;;;24.89;59.90;99307.66;7311139;19;129002;-41
2023/06/26 07:29:31;;;;;;;55.03;6.23;;;;;;;24.90;59.84;99305.84;7309371;19;129226;-46
2023/06/26 07:31:56;;;;;;;44.33;5.90;;;;;;;24.87;59.33;99300.94;7307222;19;130305;-48
2023/06/26 07:34:22;;;;;;;53.10;5.53;;;;;;;24.87;59.88;99299.13;7307955;19;130759;-37
2023/06/26 07:36:47;;;;;;;52.87;6.30;;;;;;;24.91;59.38;99299.59;7311093;19;129435;-42
2023/06/26 07:39:12;;;;;;;44.73;5.33;;;;;;;24.77;59.45;99281.88;7308165;19;128945;-43
2023/06/26 07:41:38;;;;;;;47.42;5.38;;;;;;;24.86;59.22;99296.69;7308083;19;129179;-40
2023/06/26 07:44:03;;;;;;;69.30;7.00;;;;;;;24.86;59.62;99292.22;7309679;19;129333;-40
2023/06/26 07:46:29;;;;;;;57.97;6.13;;;;;;;24.86;59.86;99286.97;7309848;19;129461;-42
2023/06/26 07:48:54;;;;;;;52.37;6.27;;;;;;;24.91;59.31;99295.16;7308542;19;129195;-41
2023/06/26 07:51:20;;;;;;;55.03;6.03;;;;;;;24.88;59.43;99294.66;7307294;19;129404;-38
2023/06/26 07:53:45;;;;;;;45.40;5.27;;;;;;;24.82;59.56;99279.56;7309177;19;129271;-40
2023/06/26 07:56:11;;;;;;;59.33;6.47;;;;;;;24.93;59.45;99289.72;7310625;19;129472;-36
2023/06/26 07:58:36;;;;;;;125.30;11.23;;;;;;;24.79;59.31;99272.03;7307138;19;129223;-39
2023/06/26 08:01:01;;;;;;;66.90;7.20;;;;;;;24.92;59.52;99291.56;7304738;19;129594;-42
2023/06/26 08:03:27;;;;;;;22.97;4.00;;;;;;;24.91;59.93;99287.28;7310457;19;129230;-37
2023/06/26 08:05:52;;;;;;;50.37;5.60;;;;;;;24.93;59.23;99287.09;7311527;19;130369;-40
2023/06/26 08:08:17;;;;;;;23.47;3.57;;;;;;;24.90;59.13;99284.81;7314857;19;128857;-39
2023/06/26 08:10:43;;;;;;;24.97;4.03;;;;;;;24.91;59.59;99283.81;7312740;19;129385;-38
2023/06/26 08:13:08;;;;;;;25.63;4.40;;;;;;;24.92;59.18;99280.22;7314161;19;129174;-41
2023/06/26 08:15:34;;;;;;;21.37;4.13;;;;;;;24.93;59.38;99285.31;7310594;19;129481;-41
2023/06/26 08:17:59;;;;;;;37.77;5.07;;;;;;;24.93;59.51;99281.84;7314241;19;129563;-38
2023/06/26 08:20:25;;;;;;;50.23;5.73;;;;;;;24.92;59.67;99274.94;7311416;19;129159;-41
2023/06/26 08:22:52;;;;;;;25.77;4.40;;;;;;;24.91;59.69;99281.19;7313125;19;129408;-38
2023/06/26 08:25:17;;;;;;;24.52;4.18;;;;;;;24.89;59.76;99273.47;7314568;19;128737;-40
2023/06/26 08:27:43;;;;;;;25.67;4.10;;;;;;;24.90;59.81;99269.88;7314856;19;129101;-40
2023/06/26 08:30:09;;;;;;;59.30;6.13;;;;;;;24.92;59.19;99264.44;7311914;19;129900;-40
2023/06/26 08:32:34;;;;;;;31.53;4.87;;;;;;;24.90;59.65;99266.41;7314015;19;130247;-35
2023/06/26 08:35:00;;;;;;;54.17;5.80;;;;;;;24.90;59.28;99266.41;7313721;19;129481;-40
2023/06/26 08:37:25;;;;;;;35.70;4.60;;;;;;;24.84;59.06;99240.78;7312757;19;128788;-45
2023/06/26 08:39:50;;;;;;;24.10;4.00;;;;;;;24.92;59.26;99264.44;7312956;19;129037;-38
2023/06/26 08:42:16;;;;;;;43.43;5.20;;;;;;;24.94;59.71;99267.72;7313306;19;129563;-38
2023/06/26 08:44:41;;;;;;;27.20;3.97;;;;;;;24.91;59.36;99257.50;7314716;19;128958;-43
2023/06/26 08:47:07;;;;;;;25.33;4.27;;;;;;;24.90;58.96;99258.50;7313945;19;129354;-37
2023/06/26 08:50:00;;;;;;;26.73;4.30;;;;;;;24.95;59.29;99251.78;7313155;19;129221;-39
2023/06/26 08:52:37;;;;;;;13.10;3.53;;;;;;;24.85;59.42;99242.44;7311913;19;129869;-41
2023/06/26 08:55:08;;;;;;;26.85;4.10;;;;;;;24.92;59.41;99256.53;7312422;19;129278;-42
2023/06/26 08:57:35;;;;;;;39.85;4.72;;;;;;;24.87;59.60;99257.06;7312975;19;129425;-39
2023/06/26 09:00:00;;;;;;;33.25;5.07;;;;;;;24.90;58.93;99250.63;7312108;19;129371;-35
2023/06/26 09:02:26;;;;;;;33.97;4.80;;;;;;;24.79;59.41;99240.47;7311632;19;129301;-43
2023/06/26 09:04:51;;;;;;;10.50;3.70;;;;;;;24.89;59.21;99249.00;7312695;19;129240;-38
2023/06/26 09:07:17;;;;;;;48.57;5.37;;;;;;;24.90;59.51;99248.81;7312328;19;129392;-39
2023/06/26 09:09:43;;;;;;;31.73;4.57;;;;;;;24.89;59.33;99249.00;7312500;19;129521;-39
2023/06/26 09:12:09;;;;;;;25.67;4.73;;;;;;;24.84;59.17;99230.28;7311406;19;130382;-38
2023/06/26 09:14:36;;;;;;;29.43;4.50;;;;;;;24.93;59.48;99245.03;7310964;19;128932;-40
2023/06/26 09:17:02;;;;;;;41.22;4.70;;;;;;;24.87;58.92;99236.03;7311308;19;128772;-40
2023/06/26 09:19:27;;;;;;;29.03;5.03;;;;;;;24.87;58.49;99229.94;7311987;19;129656;-40
2023/06/26 09:21:54;;;;;;;26.07;4.60;;;;;;;24.87;58.75;99240.44;7309088;19;129003;-39
2023/06/26 09:24:20;;;;;;;30.45;4.40;;;;;;;24.87;58.93;99236.03;7312628;19;128792;-39
2023/06/26 09:26:46;;;;;;;35.05;4.45;;;;;;;24.92;59.38;99240.75;7313387;19;129150;-38
2023/06/26 09:29:13;;;;;;;31.35;4.85;;;;;;;24.88;59.08;99236.81;7311797;19;129224;-38
2023/06/26 09:31:40;;;;;;;24.80;4.43;;;;;;;24.81;59.16;99220.91;7309412;19;129689;-37
2023/06/26 09:34:05;;;;;;;28.05;4.35;;;;;;;24.88;59.53;99226.31;7312015;19;128795;-41
2023/06/26 09:36:32;;;;;;;40.40;4.67;;;;;;;24.93;58.92;99239.75;7312334;19;129639;-39
2023/06/26 09:39:02;;;;;;;24.00;3.70;;;;;;;24.82;59.72;99216.47;7312208;19;130717;-37
2023/06/26 09:41:28;;;;;;;27.17;4.05;;;;;;;24.91;59.28;99237.31;7308679;19;129138;-40
2023/06/26 09:43:53;;;;;;;27.80;4.10;;;;;;;24.87;58.98;99230.75;7311257;19;128917;-37
2023/06/26 09:46:27;;;;;;;47.45;5.30;;;;;;;24.89;59.31;99234.03;7311499;19;129545;-40
2023/06/26 09:49:06;;;;;;;24.58;4.15;;;;;;;24.82;59.06;99208.59;7311590;19;130373;-39
2023/06/26 09:51:33;;;;;;;26.27;4.60;;;;;;;24.87;59.38;99222.03;7309992;19;129954;-34
2023/06/26 09:54:02;;;;;;;27.85;4.63;;;;;;;24.88;59.12;99216.59;7311056;19;129059;-37
2023/06/26 09:56:29;;;;;;;26.70;4.20;;;;;;;24.88;59.94;99215.78;7311245;19;128886;-37
2023/06/26 09:59:01;;;;;;;41.03;4.82;;;;;;;24.87;59.48;99208.91;7310602;19;130157;-35
2023/06/26 10:01:27;;;;;;;26.65;4.20;;;;;;;24.87;59.13;99219.41;7309887;19;129686;-41
2023/06/26 10:03:56;;;;;;;23.08;3.63;;;;;;;24.88;59.45;99215.78;7311998;19;128771;-41
2023/06/26 10:06:33;;;;;;;41.35;4.85;;;;;;;24.91;59.53;99210.19;7310972;19;128966;-38
2023/06/26 10:09:00;;;;;;;26.40;4.22;;;;;;;24.90;59.51;99209.38;7310211;19;129393;-33
2023/06/26 10:11:45;;;;;;;47.10;4.95;;;;;;;24.87;59.84;99208.91;7308903;19;129118;-40
2023/06/26 10:14:13;;;;;;;32.80;4.28;;;;;;;24.86;59.34;99208.06;7310830;19;128721;-40
2023/06/26 10:16:41;;;;;;;24.15;3.75;;;;;;;24.88;59.82;99205.25;7311732;19;129104;-43
2023/06/26 10:19:10;;;;;;;27.08;4.10;;;;;;;24.89;59.17;99199.03;7309953;19;129724;-39
2023/06/26 10:21:41;;;;;;;41.15;5.00;;;;;;;24.87;59.31;99195.75;7307651;19;130440;-35
2023/06/26 10:24:09;;;;;;;39.72;4.53;;;;;;;24.86;59.92;99202.81;7312726;19;129191;-37
2023/06/26 10:26:44;;;;;;;45.33;5.03;;;;;;;24.88;59.16;99192.94;7318367;19;129169;-36
2023/06/26 10:29:10;;;;;;;26.75;4.25;;;;;;;24.84;59.40;99186.38;7316912;19;129714;-38
2023/06/26 10:31:37;;;;;;;;;;;;;;;24.95;59.22;99195.72;7314911;19;129533;-38
2023/06/26 10:34:03;;;;;;;34.65;4.68;;;;;;;24.91;59.37;99189.13;7317735;19;128863;-42
2023/06/26 10:36:30;;;;;;;34.60;5.07;;;;;;;24.91;59.26;99191.75;7317596;19;129115;-38
2023/06/26 10:38:58;;;;;;;24.55;3.88;;;;;;;24.78;58.91;99173.09;7317020;19;129752;-36
2023/06/26 10:41:25;;;;;;;23.10;4.18;;;;;;;24.86;59.24;99186.22;7314595;19;129559;-39
2023/06/26 10:44:07;;;;;;;17.08;3.72;;;;;;;24.80;59.33;99171.13;7317004;19;128687;-35
2023/06/26 10:46:54;;;;;;;34.15;4.47;;;;;;;24.88;59.54;99179.78;7316456;19;128890;-35
2023/06/26 10:49:30;;;;;;;41.80;5.00;;;;;;;24.87;58.70;99182.59;7316078;19;131221;-36
2023/06/26 10:52:00;;;;;;;49.58;5.53;;;;;;;24.87;58.92;99182.59;7314592;19;129378;-41
2023/06/26 10:54:30;;;;;;;9.73;3.40;;;;;;;24.86;58.93;99175.72;7316988;19;128977;-40
2023/06/26 10:56:58;;;;;;;41.25;5.38;;;;;;;24.85;59.38;99168.78;7316111;19;128974;-40
2023/06/26 10:59:26;;;;;;;24.45;4.32;;;;;;;24.87;59.25;99174.72;7315655;19;129367;-39
2023/06/26 11:02:02;;;;;;;37.35;5.10;;;;;;;24.86;58.94;99181.78;7313816;19;129369;-42
2023/06/26 11:04:41;;;;;;;36.97;4.85;;;;;;;24.83;59.45;99166.34;7316867;19;129086;-39
2023/06/26 11:07:26;;;;;;;30.13;4.53;;;;;;;24.90;59.23;99171.72;7317515;19;128939;-41
2023/06/26 11:09:57;;;;;;;15.45;3.67;;;;;;;24.88;58.70;99173.72;7316835;19;130126;-36
2023/06/26 11:12:41;;;;;;;12.57;3.50;;;;;;;24.89;58.88;99170.91;7315684;19;129559;-40
2023/06/26 11:15:14;;;;;;;24.73;3.88;;;;;;;24.86;59.13;99155.47;7314764;19;130865;-38